sensor_id;sensor_type;location;lat;lon;timestamp;P1;durP1;ratioP1;P2;durP2;ratioP2
69305;SDS011;56427;51.580;4.656;2023-02-14T00:00:40;36.15;;;17.17;;
69305;SDS011;56427;51.580;4.656;2023-02-14T00:03:05;39.03;;;19.25;;
69305;SDS011;56427;51.580;4.656;2023-02-14T00:05:31;36.83;;;17.80;;
69305;SDS011;56427;51.580;4.656;2023-02-14T00:07:56;35.57;;;18.93;;
69305;SDS011;56427;51.580;4.656;2023-02-14T00:10:21;32.90;;;16.83;;
69305;SDS011;56427;51.580;4.656;2023-02-14T00:12:47;37.07;;;16.87;;
69305;SDS011;56427;51.580;4.656;2023-02-14T00:15:12;41.20;;;18.47;;
69305;SDS011;56427;51.580;4.656;2023-02-14T00:17:51;37.45;;;17.80;;
69305;SDS011;56427;51.580;4.656;2023-02-14T00:20:18;41.03;;;17.77;;
69305;SDS011;56427;51.580;4.656;2023-02-14T00:22:45;28.48;;;15.82;;
69305;SDS011;56427;51.580;4.656;2023-02-14T00:25:10;43.07;;;20.17;;
69305;SDS011;56427;51.580;4.656;2023-02-14T00:27:36;35.43;;;18.43;;
69305;SDS011;56427;51.580;4.656;2023-02-14T00:30:02;33.55;;;16.40;;
69305;SDS011;56427;51.580;4.656;2023-02-14T00:32:28;33.03;;;18.58;;
69305;SDS011;56427;51.580;4.656;2023-02-14T00:34:54;33.13;;;17.83;;
69305;SDS011;56427;51.580;4.656;2023-02-14T00:37:20;30.65;;;16.08;;
69305;SDS011;56427;51.580;4.656;2023-02-14T00:39:45;37.43;;;17.53;;
69305;SDS011;56427;51.580;4.656;2023-02-14T00:42:11;37.90;;;17.30;;
69305;SDS011;56427;51.580;4.656;2023-02-14T00:44:37;36.30;;;17.73;;
69305;SDS011;56427;51.580;4.656;2023-02-14T00:47:04;33.65;;;16.65;;
69305;SDS011;56427;51.580;4.656;2023-02-14T00:49:29;29.65;;;16.27;;
69305;SDS011;56427;51.580;4.656;2023-02-14T00:51:55;36.37;;;17.27;;
69305;SDS011;56427;51.580;4.656;2023-02-14T00:54:20;30.23;;;15.53;;
69305;SDS011;56427;51.580;4.656;2023-02-14T00:56:46;34.08;;;17.08;;
69305;SDS011;56427;51.580;4.656;2023-02-14T00:59:11;33.57;;;16.87;;
69305;SDS011;56427;51.580;4.656;2023-02-14T01:01:36;43.87;;;20.43;;
69305;SDS011;56427;51.580;4.656;2023-02-14T01:04:02;33.43;;;16.40;;
69305;SDS011;56427;51.580;4.656;2023-02-14T01:06:28;35.80;;;16.52;;
69305;SDS011;56427;51.580;4.656;2023-02-14T01:08:54;30.38;;;14.55;;
69305;SDS011;56427;51.580;4.656;2023-02-14T01:11:19;27.27;;;14.20;;
69305;SDS011;56427;51.580;4.656;2023-02-14T01:13:47;22.45;;;13.15;;
69305;SDS011;56427;51.580;4.656;2023-02-14T01:16:15;32.30;;;14.47;;
69305;SDS011;56427;51.580;4.656;2023-02-14T01:18:45;44.75;;;18.88;;
69305;SDS011;56427;51.580;4.656;2023-02-14T01:21:11;40.85;;;20.17;;
69305;SDS011;56427;51.580;4.656;2023-02-14T01:23:40;40.58;;;19.30;;
69305;SDS011;56427;51.580;4.656;2023-02-14T01:26:07;43.47;;;20.83;;
69305;SDS011;56427;51.580;4.656;2023-02-14T01:28:33;48.08;;;21.77;;
69305;SDS011;56427;51.580;4.656;2023-02-14T01:31:07;41.92;;;20.08;;
69305;SDS011;56427;51.580;4.656;2023-02-14T01:33:36;59.72;;;26.00;;
69305;SDS011;56427;51.580;4.656;2023-02-14T01:36:02;48.85;;;22.98;;
69305;SDS011;56427;51.580;4.656;2023-02-14T01:38:28;38.40;;;19.00;;
69305;SDS011;56427;51.580;4.656;2023-02-14T01:40:54;45.67;;;21.15;;
69305;SDS011;56427;51.580;4.656;2023-02-14T01:43:19;41.33;;;18.33;;
69305;SDS011;56427;51.580;4.656;2023-02-14T01:45:44;36.87;;;18.47;;
69305;SDS011;56427;51.580;4.656;2023-02-14T01:48:10;36.73;;;16.83;;
69305;SDS011;56427;51.580;4.656;2023-02-14T01:50:36;34.53;;;16.20;;
69305;SDS011;56427;51.580;4.656;2023-02-14T01:53:10;32.10;;;15.20;;
69305;SDS011;56427;51.580;4.656;2023-02-14T01:55:44;30.17;;;16.05;;
69305;SDS011;56427;51.580;4.656;2023-02-14T01:58:17;47.30;;;19.73;;
69305;SDS011;56427;51.580;4.656;2023-02-14T02:00:46;38.83;;;17.38;;
69305;SDS011;56427;51.580;4.656;2023-02-14T02:03:21;47.87;;;19.73;;
69305;SDS011;56427;51.580;4.656;2023-02-14T02:05:50;48.13;;;20.58;;
69305;SDS011;56427;51.580;4.656;2023-02-14T02:08:19;43.60;;;19.63;;
69305;SDS011;56427;51.580;4.656;2023-02-14T02:10:45;33.50;;;16.80;;
69305;SDS011;56427;51.580;4.656;2023-02-14T02:13:15;52.67;;;22.23;;
69305;SDS011;56427;51.580;4.656;2023-02-14T02:16:27;45.40;;;20.02;;
69305;SDS011;56427;51.580;4.656;2023-02-14T02:18:51;51.90;;;22.77;;
69305;SDS011;56427;51.580;4.656;2023-02-14T02:21:48;38.83;;;18.38;;
69305;SDS011;56427;51.580;4.656;2023-02-14T02:24:29;39.92;;;18.88;;
69305;SDS011;56427;51.580;4.656;2023-02-14T02:33:20;31.33;;;16.10;;
69305;SDS011;56427;51.580;4.656;2023-02-14T02:42:05;36.55;;;17.58;;
69305;SDS011;56427;51.580;4.656;2023-02-14T02:44:56;35.38;;;17.63;;
69305;SDS011;56427;51.580;4.656;2023-02-14T02:47:27;33.70;;;17.23;;
69305;SDS011;56427;51.580;4.656;2023-02-14T02:56:12;36.95;;;18.08;;
69305;SDS011;56427;51.580;4.656;2023-02-14T02:59:04;45.80;;;21.45;;
69305;SDS011;56427;51.580;4.656;2023-02-14T03:01:42;39.30;;;19.30;;
69305;SDS011;56427;51.580;4.656;2023-02-14T03:04:11;37.53;;;17.15;;
69305;SDS011;56427;51.580;4.656;2023-02-14T03:06:56;34.33;;;17.83;;
69305;SDS011;56427;51.580;4.656;2023-02-14T03:11:56;35.15;;;16.80;;
69305;SDS011;56427;51.580;4.656;2023-02-14T03:14:33;38.90;;;17.43;;
69305;SDS011;56427;51.580;4.656;2023-02-14T03:17:14;38.08;;;17.70;;
69305;SDS011;56427;51.580;4.656;2023-02-14T03:20:09;34.33;;;17.20;;
69305;SDS011;56427;51.580;4.656;2023-02-14T03:25:27;35.30;;;16.63;;
69305;SDS011;56427;51.580;4.656;2023-02-14T03:28:10;36.00;;;17.03;;
69305;SDS011;56427;51.580;4.656;2023-02-14T03:30:41;33.63;;;16.77;;
69305;SDS011;56427;51.580;4.656;2023-02-14T03:33:16;40.30;;;19.20;;
69305;SDS011;56427;51.580;4.656;2023-02-14T03:35:58;40.65;;;19.35;;
69305;SDS011;56427;51.580;4.656;2023-02-14T03:38:44;34.00;;;17.83;;
69305;SDS011;56427;51.580;4.656;2023-02-14T03:41:20;30.00;;;15.30;;
69305;SDS011;56427;51.580;4.656;2023-02-14T03:43:50;39.80;;;18.75;;
69305;SDS011;56427;51.580;4.656;2023-02-14T03:46:27;48.65;;;19.00;;
69305;SDS011;56427;51.580;4.656;2023-02-14T03:48:58;37.80;;;18.35;;
69305;SDS011;56427;51.580;4.656;2023-02-14T03:51:27;35.25;;;17.17;;
69305;SDS011;56427;51.580;4.656;2023-02-14T03:53:58;32.73;;;15.93;;
69305;SDS011;56427;51.580;4.656;2023-02-14T03:56:35;30.55;;;16.10;;
69305;SDS011;56427;51.580;4.656;2023-02-14T03:59:15;31.75;;;15.63;;
69305;SDS011;56427;51.580;4.656;2023-02-14T04:02:05;31.63;;;15.65;;
69305;SDS011;56427;51.580;4.656;2023-02-14T04:04:40;34.13;;;17.13;;
69305;SDS011;56427;51.580;4.656;2023-02-14T04:07:13;35.57;;;17.23;;
69305;SDS011;56427;51.580;4.656;2023-02-14T04:09:41;35.13;;;16.23;;
69305;SDS011;56427;51.580;4.656;2023-02-14T04:12:07;33.53;;;17.42;;
69305;SDS011;56427;51.580;4.656;2023-02-14T04:14:33;31.67;;;17.38;;
69305;SDS011;56427;51.580;4.656;2023-02-14T04:16:59;36.30;;;16.77;;
69305;SDS011;56427;51.580;4.656;2023-02-14T04:19:43;39.28;;;18.58;;
69305;SDS011;56427;51.580;4.656;2023-02-14T04:22:09;43.50;;;18.77;;
69305;SDS011;56427;51.580;4.656;2023-02-14T04:24:34;44.13;;;19.00;;
69305;SDS011;56427;51.580;4.656;2023-02-14T04:27:00;34.13;;;18.30;;
69305;SDS011;56427;51.580;4.656;2023-02-14T04:32:08;35.88;;;18.10;;
69305;SDS011;56427;51.580;4.656;2023-02-14T04:34:36;37.33;;;18.83;;
69305;SDS011;56427;51.580;4.656;2023-02-14T04:37:01;36.78;;;17.98;;
69305;SDS011;56427;51.580;4.656;2023-02-14T04:39:27;37.70;;;18.03;;
69305;SDS011;56427;51.580;4.656;2023-02-14T04:41:52;38.00;;;18.67;;
69305;SDS011;56427;51.580;4.656;2023-02-14T04:44:18;40.70;;;20.23;;
69305;SDS011;56427;51.580;4.656;2023-02-14T04:46:43;43.47;;;19.37;;
69305;SDS011;56427;51.580;4.656;2023-02-14T04:49:09;36.77;;;18.93;;
69305;SDS011;56427;51.580;4.656;2023-02-14T04:51:34;37.20;;;18.70;;
69305;SDS011;56427;51.580;4.656;2023-02-14T04:53:59;38.53;;;18.10;;
69305;SDS011;56427;51.580;4.656;2023-02-14T04:56:25;40.58;;;19.45;;
69305;SDS011;56427;51.580;4.656;2023-02-14T04:58:51;43.47;;;18.77;;
69305;SDS011;56427;51.580;4.656;2023-02-14T05:01:17;53.25;;;22.73;;
69305;SDS011;56427;51.580;4.656;2023-02-14T05:03:42;47.83;;;20.77;;
69305;SDS011;56427;51.580;4.656;2023-02-14T05:06:08;44.83;;;20.40;;
69305;SDS011;56427;51.580;4.656;2023-02-14T05:08:33;40.53;;;18.90;;
69305;SDS011;56427;51.580;4.656;2023-02-14T05:10:58;45.27;;;20.57;;
69305;SDS011;56427;51.580;4.656;2023-02-14T05:13:24;42.23;;;19.93;;
69305;SDS011;56427;51.580;4.656;2023-02-14T05:15:49;40.50;;;19.67;;
69305;SDS011;56427;51.580;4.656;2023-02-14T05:18:14;44.93;;;19.20;;
69305;SDS011;56427;51.580;4.656;2023-02-14T05:20:40;45.53;;;19.53;;
69305;SDS011;56427;51.580;4.656;2023-02-14T05:23:06;46.35;;;22.38;;
69305;SDS011;56427;51.580;4.656;2023-02-14T05:25:37;50.40;;;22.73;;
69305;SDS011;56427;51.580;4.656;2023-02-14T05:28:05;54.10;;;23.30;;
69305;SDS011;56427;51.580;4.656;2023-02-14T05:30:31;36.93;;;18.90;;
69305;SDS011;56427;51.580;4.656;2023-02-14T05:32:56;45.50;;;20.03;;
69305;SDS011;56427;51.580;4.656;2023-02-14T05:35:21;41.25;;;19.90;;
69305;SDS011;56427;51.580;4.656;2023-02-14T05:37:47;37.60;;;19.93;;
69305;SDS011;56427;51.580;4.656;2023-02-14T05:40:12;38.67;;;20.43;;
69305;SDS011;56427;51.580;4.656;2023-02-14T05:42:39;52.33;;;25.25;;
69305;SDS011;56427;51.580;4.656;2023-02-14T05:45:04;48.83;;;23.70;;
69305;SDS011;56427;51.580;4.656;2023-02-14T05:47:30;46.70;;;21.35;;
69305;SDS011;56427;51.580;4.656;2023-02-14T05:49:56;50.67;;;24.10;;
69305;SDS011;56427;51.580;4.656;2023-02-14T05:52:21;45.67;;;22.17;;
69305;SDS011;56427;51.580;4.656;2023-02-14T05:54:46;51.40;;;23.17;;
69305;SDS011;56427;51.580;4.656;2023-02-14T05:57:12;48.60;;;23.37;;
69305;SDS011;56427;51.580;4.656;2023-02-14T05:59:37;53.73;;;23.33;;
69305;SDS011;56427;51.580;4.656;2023-02-14T06:02:02;48.10;;;21.67;;
69305;SDS011;56427;51.580;4.656;2023-02-14T06:04:27;48.10;;;24.33;;
69305;SDS011;56427;51.580;4.656;2023-02-14T06:06:53;50.07;;;22.53;;
69305;SDS011;56427;51.580;4.656;2023-02-14T06:09:18;53.20;;;24.35;;
69305;SDS011;56427;51.580;4.656;2023-02-14T06:11:44;47.17;;;24.50;;
69305;SDS011;56427;51.580;4.656;2023-02-14T06:14:09;57.20;;;25.87;;
69305;SDS011;56427;51.580;4.656;2023-02-14T06:16:34;62.93;;;25.80;;
69305;SDS011;56427;51.580;4.656;2023-02-14T06:19:00;58.43;;;25.67;;
69305;SDS011;56427;51.580;4.656;2023-02-14T06:21:25;62.67;;;25.40;;
69305;SDS011;56427;51.580;4.656;2023-02-14T06:23:51;54.25;;;26.80;;
69305;SDS011;56427;51.580;4.656;2023-02-14T06:26:16;67.43;;;27.87;;
69305;SDS011;56427;51.580;4.656;2023-02-14T06:28:42;63.42;;;27.42;;
69305;SDS011;56427;51.580;4.656;2023-02-14T06:31:07;68.83;;;28.90;;
69305;SDS011;56427;51.580;4.656;2023-02-14T06:33:39;65.82;;;31.20;;
69305;SDS011;56427;51.580;4.656;2023-02-14T06:36:04;63.60;;;29.20;;
69305;SDS011;56427;51.580;4.656;2023-02-14T06:38:30;59.83;;;28.43;;
69305;SDS011;56427;51.580;4.656;2023-02-14T06:41:01;63.07;;;27.57;;
69305;SDS011;56427;51.580;4.656;2023-02-14T06:43:28;61.95;;;27.95;;
69305;SDS011;56427;51.580;4.656;2023-02-14T06:45:54;65.25;;;29.50;;
69305;SDS011;56427;51.580;4.656;2023-02-14T06:48:19;71.73;;;31.00;;
69305;SDS011;56427;51.580;4.656;2023-02-14T06:50:45;69.57;;;29.63;;
69305;SDS011;56427;51.580;4.656;2023-02-14T06:53:11;59.92;;;28.08;;
69305;SDS011;56427;51.580;4.656;2023-02-14T06:55:36;70.37;;;31.27;;
69305;SDS011;56427;51.580;4.656;2023-02-14T06:58:01;68.33;;;30.03;;
69305;SDS011;56427;51.580;4.656;2023-02-14T07:00:27;88.28;;;36.13;;
69305;SDS011;56427;51.580;4.656;2023-02-14T07:02:53;66.03;;;31.37;;
69305;SDS011;56427;51.580;4.656;2023-02-14T07:05:18;77.83;;;31.50;;
69305;SDS011;56427;51.580;4.656;2023-02-14T07:07:44;61.13;;;28.48;;
69305;SDS011;56427;51.580;4.656;2023-02-14T07:10:09;70.93;;;34.17;;
69305;SDS011;56427;51.580;4.656;2023-02-14T07:12:35;68.55;;;31.58;;
69305;SDS011;56427;51.580;4.656;2023-02-14T07:15:03;82.72;;;34.55;;
69305;SDS011;56427;51.580;4.656;2023-02-14T07:17:29;65.73;;;31.57;;
69305;SDS011;56427;51.580;4.656;2023-02-14T07:19:55;66.15;;;30.35;;
69305;SDS011;56427;51.580;4.656;2023-02-14T07:22:21;57.60;;;28.33;;
69305;SDS011;56427;51.580;4.656;2023-02-14T07:24:47;64.83;;;30.43;;
69305;SDS011;56427;51.580;4.656;2023-02-14T07:27:12;55.13;;;28.13;;
69305;SDS011;56427;51.580;4.656;2023-02-14T07:29:37;60.20;;;28.53;;
69305;SDS011;56427;51.580;4.656;2023-02-14T07:32:03;62.33;;;28.17;;
69305;SDS011;56427;51.580;4.656;2023-02-14T07:34:28;62.17;;;28.88;;
69305;SDS011;56427;51.580;4.656;2023-02-14T07:36:54;63.13;;;27.23;;
69305;SDS011;56427;51.580;4.656;2023-02-14T07:39:19;59.50;;;26.40;;
69305;SDS011;56427;51.580;4.656;2023-02-14T07:41:44;59.97;;;27.55;;
69305;SDS011;56427;51.580;4.656;2023-02-14T07:44:10;63.40;;;30.00;;
69305;SDS011;56427;51.580;4.656;2023-02-14T07:46:35;55.67;;;27.27;;
69305;SDS011;56427;51.580;4.656;2023-02-14T07:49:01;63.80;;;26.80;;
69305;SDS011;56427;51.580;4.656;2023-02-14T07:51:26;54.47;;;27.83;;
69305;SDS011;56427;51.580;4.656;2023-02-14T07:53:52;64.38;;;29.55;;
69305;SDS011;56427;51.580;4.656;2023-02-14T07:56:17;60.30;;;29.10;;
69305;SDS011;56427;51.580;4.656;2023-02-14T07:58:42;54.83;;;26.57;;
69305;SDS011;56427;51.580;4.656;2023-02-14T08:01:08;51.03;;;25.33;;
69305;SDS011;56427;51.580;4.656;2023-02-14T08:03:33;46.33;;;22.63;;
69305;SDS011;56427;51.580;4.656;2023-02-14T08:05:58;43.43;;;23.37;;
69305;SDS011;56427;51.580;4.656;2023-02-14T08:08:27;42.03;;;21.73;;
69305;SDS011;56427;51.580;4.656;2023-02-14T08:10:54;39.72;;;23.42;;
69305;SDS011;56427;51.580;4.656;2023-02-14T08:13:20;43.90;;;22.65;;
69305;SDS011;56427;51.580;4.656;2023-02-14T08:15:45;45.30;;;24.63;;
69305;SDS011;56427;51.580;4.656;2023-02-14T08:18:30;60.05;;;25.90;;
69305;SDS011;56427;51.580;4.656;2023-02-14T08:20:57;43.58;;;22.25;;
69305;SDS011;56427;51.580;4.656;2023-02-14T08:23:23;34.13;;;19.93;;
69305;SDS011;56427;51.580;4.656;2023-02-14T08:25:49;36.07;;;21.37;;
69305;SDS011;56427;51.580;4.656;2023-02-14T08:28:15;31.65;;;18.50;;
69305;SDS011;56427;51.580;4.656;2023-02-14T08:30:41;33.60;;;19.10;;
69305;SDS011;56427;51.580;4.656;2023-02-14T08:33:07;36.58;;;20.60;;
69305;SDS011;56427;51.580;4.656;2023-02-14T08:35:33;35.80;;;21.33;;
69305;SDS011;56427;51.580;4.656;2023-02-14T08:38:00;38.58;;;20.73;;
69305;SDS011;56427;51.580;4.656;2023-02-14T08:40:25;36.03;;;21.97;;
69305;SDS011;56427;51.580;4.656;2023-02-14T08:42:50;32.67;;;20.43;;
69305;SDS011;56427;51.580;4.656;2023-02-14T08:45:16;37.47;;;22.40;;
69305;SDS011;56427;51.580;4.656;2023-02-14T08:47:41;35.23;;;20.70;;
69305;SDS011;56427;51.580;4.656;2023-02-14T08:50:08;35.63;;;20.17;;
69305;SDS011;56427;51.580;4.656;2023-02-14T08:52:40;35.00;;;19.75;;
69305;SDS011;56427;51.580;4.656;2023-02-14T08:55:07;37.78;;;21.00;;
69305;SDS011;56427;51.580;4.656;2023-02-14T08:57:33;34.17;;;19.90;;
69305;SDS011;56427;51.580;4.656;2023-02-14T08:59:58;36.13;;;21.20;;
69305;SDS011;56427;51.580;4.656;2023-02-14T09:02:24;34.00;;;19.73;;
69305;SDS011;56427;51.580;4.656;2023-02-14T09:04:49;34.27;;;20.57;;
69305;SDS011;56427;51.580;4.656;2023-02-14T09:07:14;32.80;;;19.43;;
69305;SDS011;56427;51.580;4.656;2023-02-14T09:09:40;28.07;;;18.20;;
69305;SDS011;56427;51.580;4.656;2023-02-14T09:12:06;38.17;;;21.17;;
69305;SDS011;56427;51.580;4.656;2023-02-14T09:14:36;33.47;;;20.30;;
69305;SDS011;56427;51.580;4.656;2023-02-14T09:17:03;32.13;;;20.30;;
69305;SDS011;56427;51.580;4.656;2023-02-14T09:19:33;35.00;;;21.20;;
69305;SDS011;56427;51.580;4.656;2023-02-14T09:21:59;34.28;;;19.75;;
69305;SDS011;56427;51.580;4.656;2023-02-14T09:24:27;34.67;;;19.85;;
69305;SDS011;56427;51.580;4.656;2023-02-14T09:26:54;33.60;;;20.33;;
69305;SDS011;56427;51.580;4.656;2023-02-14T09:29:21;39.13;;;21.13;;
69305;SDS011;56427;51.580;4.656;2023-02-14T09:31:47;35.57;;;21.13;;
69305;SDS011;56427;51.580;4.656;2023-02-14T09:34:12;36.47;;;21.43;;
69305;SDS011;56427;51.580;4.656;2023-02-14T09:36:38;36.25;;;20.77;;
69305;SDS011;56427;51.580;4.656;2023-02-14T09:39:03;33.13;;;20.00;;
69305;SDS011;56427;51.580;4.656;2023-02-14T09:46:51;35.28;;;21.30;;
69305;SDS011;56427;51.580;4.656;2023-02-14T09:49:33;37.97;;;22.45;;
69305;SDS011;56427;51.580;4.656;2023-02-14T09:52:02;33.67;;;20.52;;
69305;SDS011;56427;51.580;4.656;2023-02-14T09:54:31;35.10;;;21.17;;
69305;SDS011;56427;51.580;4.656;2023-02-14T09:59:43;30.75;;;20.35;;
69305;SDS011;56427;51.580;4.656;2023-02-14T10:10:43;33.78;;;20.88;;
69305;SDS011;56427;51.580;4.656;2023-02-14T10:13:18;33.20;;;20.10;;
69305;SDS011;56427;51.580;4.656;2023-02-14T10:15:57;32.60;;;19.80;;
69305;SDS011;56427;51.580;4.656;2023-02-14T10:18:42;30.15;;;19.63;;
69305;SDS011;56427;51.580;4.656;2023-02-14T10:21:24;34.43;;;20.10;;
69305;SDS011;56427;51.580;4.656;2023-02-14T10:27:03;36.05;;;19.65;;
69305;SDS011;56427;51.580;4.656;2023-02-14T10:29:36;33.85;;;20.35;;
69305;SDS011;56427;51.580;4.656;2023-02-14T10:32:03;31.40;;;19.80;;
69305;SDS011;56427;51.580;4.656;2023-02-14T10:37:07;36.63;;;20.90;;
69305;SDS011;56427;51.580;4.656;2023-02-14T10:42:57;32.35;;;20.20;;
69305;SDS011;56427;51.580;4.656;2023-02-14T10:45:44;37.40;;;20.25;;
69305;SDS011;56427;51.580;4.656;2023-02-14T10:51:23;36.05;;;19.08;;
69305;SDS011;56427;51.580;4.656;2023-02-14T10:56:33;39.97;;;20.98;;
69305;SDS011;56427;51.580;4.656;2023-02-14T10:59:07;36.05;;;20.35;;
69305;SDS011;56427;51.580;4.656;2023-02-14T11:01:41;35.00;;;19.60;;
69305;SDS011;56427;51.580;4.656;2023-02-14T11:04:08;35.67;;;20.52;;
69305;SDS011;56427;51.580;4.656;2023-02-14T11:06:36;36.33;;;20.02;;
69305;SDS011;56427;51.580;4.656;2023-02-14T11:09:02;33.27;;;19.73;;
69305;SDS011;56427;51.580;4.656;2023-02-14T11:13:55;34.10;;;20.30;;
69305;SDS011;56427;51.580;4.656;2023-02-14T11:16:31;39.17;;;20.90;;
69305;SDS011;56427;51.580;4.656;2023-02-14T11:19:14;35.42;;;21.08;;
69305;SDS011;56427;51.580;4.656;2023-02-14T11:21:46;36.25;;;20.92;;
69305;SDS011;56427;51.580;4.656;2023-02-14T11:27:04;34.37;;;20.47;;
69305;SDS011;56427;51.580;4.656;2023-02-14T11:32:19;34.13;;;20.48;;
69305;SDS011;56427;51.580;4.656;2023-02-14T11:34:51;35.45;;;19.85;;
69305;SDS011;56427;51.580;4.656;2023-02-14T11:37:33;37.30;;;20.80;;
69305;SDS011;56427;51.580;4.656;2023-02-14T11:40:03;38.87;;;19.90;;
69305;SDS011;56427;51.580;4.656;2023-02-14T11:45:01;35.38;;;20.52;;
69305;SDS011;56427;51.580;4.656;2023-02-14T11:47:30;34.40;;;19.60;;
69305;SDS011;56427;51.580;4.656;2023-02-14T11:49:58;35.15;;;20.92;;
69305;SDS011;56427;51.580;4.656;2023-02-14T11:52:35;37.30;;;19.90;;
69305;SDS011;56427;51.580;4.656;2023-02-14T11:55:19;35.20;;;20.48;;
69305;SDS011;56427;51.580;4.656;2023-02-14T11:57:48;34.08;;;20.42;;
69305;SDS011;56427;51.580;4.656;2023-02-14T12:00:15;37.67;;;19.47;;
69305;SDS011;56427;51.580;4.656;2023-02-14T12:02:43;35.55;;;21.13;;
69305;SDS011;56427;51.580;4.656;2023-02-14T12:07:50;35.92;;;20.10;;
69305;SDS011;56427;51.580;4.656;2023-02-14T12:12:53;34.33;;;19.80;;
69305;SDS011;56427;51.580;4.656;2023-02-14T12:15:22;35.13;;;20.95;;
69305;SDS011;56427;51.580;4.656;2023-02-14T12:17:48;40.03;;;20.17;;
69305;SDS011;56427;51.580;4.656;2023-02-14T12:20:22;39.42;;;20.58;;
69305;SDS011;56427;51.580;4.656;2023-02-14T12:23:04;37.40;;;21.07;;
69305;SDS011;56427;51.580;4.656;2023-02-14T12:26:00;33.33;;;19.58;;
69305;SDS011;56427;51.580;4.656;2023-02-14T12:28:34;36.20;;;20.80;;
69305;SDS011;56427;51.580;4.656;2023-02-14T12:31:13;33.85;;;20.00;;
69305;SDS011;56427;51.580;4.656;2023-02-14T12:33:39;32.42;;;18.73;;
69305;SDS011;56427;51.580;4.656;2023-02-14T12:36:17;33.87;;;19.47;;
69305;SDS011;56427;51.580;4.656;2023-02-14T12:39:07;32.03;;;19.23;;
69305;SDS011;56427;51.580;4.656;2023-02-14T12:41:43;34.30;;;19.65;;
69305;SDS011;56427;51.580;4.656;2023-02-14T12:47:09;35.80;;;19.08;;
69305;SDS011;56427;51.580;4.656;2023-02-14T12:57:45;36.43;;;21.77;;
69305;SDS011;56427;51.580;4.656;2023-02-14T13:00:43;33.20;;;19.45;;
69305;SDS011;56427;51.580;4.656;2023-02-14T13:03:26;34.95;;;20.05;;
69305;SDS011;56427;51.580;4.656;2023-02-14T13:06:08;35.65;;;20.48;;
69305;SDS011;56427;51.580;4.656;2023-02-14T13:11:35;34.70;;;19.70;;
69305;SDS011;56427;51.580;4.656;2023-02-14T13:16:54;36.75;;;20.02;;
69305;SDS011;56427;51.580;4.656;2023-02-14T13:22:24;37.28;;;20.63;;
69305;SDS011;56427;51.580;4.656;2023-02-14T13:24:54;38.30;;;20.77;;
69305;SDS011;56427;51.580;4.656;2023-02-14T13:27:25;39.70;;;21.58;;
69305;SDS011;56427;51.580;4.656;2023-02-14T13:29:57;34.42;;;20.08;;
69305;SDS011;56427;51.580;4.656;2023-02-14T13:32:27;35.85;;;21.50;;
69305;SDS011;56427;51.580;4.656;2023-02-14T13:34:56;36.60;;;20.55;;
69305;SDS011;56427;51.580;4.656;2023-02-14T13:37:23;37.27;;;20.70;;
69305;SDS011;56427;51.580;4.656;2023-02-14T13:39:55;39.78;;;20.65;;
69305;SDS011;56427;51.580;4.656;2023-02-14T13:55:55;37.65;;;20.65;;
69305;SDS011;56427;51.580;4.656;2023-02-14T13:58:20;36.47;;;19.30;;
69305;SDS011;56427;51.580;4.656;2023-02-14T14:00:48;37.47;;;21.50;;
69305;SDS011;56427;51.580;4.656;2023-02-14T14:03:52;38.88;;;20.38;;
69305;SDS011;56427;51.580;4.656;2023-02-14T14:09:07;35.07;;;20.97;;
69305;SDS011;56427;51.580;4.656;2023-02-14T14:18:52;34.28;;;20.05;;
69305;SDS011;56427;51.580;4.656;2023-02-14T14:24:11;35.67;;;18.97;;
69305;SDS011;56427;51.580;4.656;2023-02-14T14:26:39;37.22;;;21.35;;
69305;SDS011;56427;51.580;4.656;2023-02-14T14:31:55;37.28;;;21.00;;
69305;SDS011;56427;51.580;4.656;2023-02-14T14:34:22;38.07;;;21.33;;
69305;SDS011;56427;51.580;4.656;2023-02-14T14:36:59;49.35;;;22.17;;
69305;SDS011;56427;51.580;4.656;2023-02-14T14:39:27;36.35;;;20.90;;
69305;SDS011;56427;51.580;4.656;2023-02-14T14:41:54;38.33;;;21.35;;
69305;SDS011;56427;51.580;4.656;2023-02-14T14:44:28;36.43;;;21.23;;
69305;SDS011;56427;51.580;4.656;2023-02-14T14:46:57;36.90;;;20.90;;
69305;SDS011;56427;51.580;4.656;2023-02-14T14:49:23;34.10;;;20.15;;
69305;SDS011;56427;51.580;4.656;2023-02-14T14:51:49;37.08;;;20.83;;
69305;SDS011;56427;51.580;4.656;2023-02-14T14:54:16;38.10;;;21.53;;
69305;SDS011;56427;51.580;4.656;2023-02-14T14:56:54;35.40;;;20.00;;
69305;SDS011;56427;51.580;4.656;2023-02-14T15:01:58;36.43;;;20.43;;
69305;SDS011;56427;51.580;4.656;2023-02-14T15:06:53;34.30;;;19.53;;
69305;SDS011;56427;51.580;4.656;2023-02-14T15:09:30;38.85;;;21.50;;
69305;SDS011;56427;51.580;4.656;2023-02-14T15:12:00;35.83;;;20.13;;
69305;SDS011;56427;51.580;4.656;2023-02-14T15:15:04;36.08;;;21.20;;
69305;SDS011;56427;51.580;4.656;2023-02-14T15:21:24;39.87;;;21.47;;
69305;SDS011;56427;51.580;4.656;2023-02-14T15:24:48;39.83;;;20.88;;
69305;SDS011;56427;51.580;4.656;2023-02-14T15:27:38;37.92;;;20.50;;
69305;SDS011;56427;51.580;4.656;2023-02-14T15:30:06;35.92;;;20.90;;
69305;SDS011;56427;51.580;4.656;2023-02-14T15:32:47;37.67;;;21.33;;
69305;SDS011;56427;51.580;4.656;2023-02-14T15:35:15;39.80;;;21.50;;
69305;SDS011;56427;51.580;4.656;2023-02-14T15:37:42;39.33;;;21.25;;
69305;SDS011;56427;51.580;4.656;2023-02-14T15:40:25;38.05;;;21.42;;
69305;SDS011;56427;51.580;4.656;2023-02-14T15:42:53;41.25;;;21.75;;
69305;SDS011;56427;51.580;4.656;2023-02-14T15:47:55;39.83;;;22.63;;
69305;SDS011;56427;51.580;4.656;2023-02-14T15:50:23;40.58;;;22.10;;
69305;SDS011;56427;51.580;4.656;2023-02-14T15:52:52;42.30;;;22.90;;
69305;SDS011;56427;51.580;4.656;2023-02-14T15:55:24;43.60;;;22.55;;
69305;SDS011;56427;51.580;4.656;2023-02-14T15:57:54;43.63;;;21.85;;
69305;SDS011;56427;51.580;4.656;2023-02-14T16:00:23;45.23;;;21.90;;
69305;SDS011;56427;51.580;4.656;2023-02-14T16:02:53;42.08;;;21.70;;
69305;SDS011;56427;51.580;4.656;2023-02-14T16:05:23;44.33;;;23.27;;
69305;SDS011;56427;51.580;4.656;2023-02-14T16:08:00;40.13;;;21.83;;
69305;SDS011;56427;51.580;4.656;2023-02-14T16:10:34;39.92;;;20.92;;
69305;SDS011;56427;51.580;4.656;2023-02-14T16:13:02;39.30;;;22.23;;
69305;SDS011;56427;51.580;4.656;2023-02-14T16:15:34;43.60;;;22.80;;
69305;SDS011;56427;51.580;4.656;2023-02-14T16:18:01;41.20;;;21.58;;
69305;SDS011;56427;51.580;4.656;2023-02-14T16:25:49;44.50;;;22.80;;
69305;SDS011;56427;51.580;4.656;2023-02-14T16:28:15;44.72;;;22.58;;
69305;SDS011;56427;51.580;4.656;2023-02-14T16:30:41;44.90;;;22.07;;
69305;SDS011;56427;51.580;4.656;2023-02-14T16:33:19;49.60;;;24.45;;
69305;SDS011;56427;51.580;4.656;2023-02-14T16:35:55;47.72;;;27.00;;
69305;SDS011;56427;51.580;4.656;2023-02-14T16:38:30;48.53;;;25.55;;
69305;SDS011;56427;51.580;4.656;2023-02-14T16:40:59;48.90;;;25.27;;
69305;SDS011;56427;51.580;4.656;2023-02-14T16:43:25;53.53;;;26.10;;
69305;SDS011;56427;51.580;4.656;2023-02-14T16:45:50;48.37;;;25.03;;
69305;SDS011;56427;51.580;4.656;2023-02-14T16:48:15;44.63;;;24.77;;
69305;SDS011;56427;51.580;4.656;2023-02-14T16:50:41;46.40;;;26.37;;
69305;SDS011;56427;51.580;4.656;2023-02-14T16:53:21;50.22;;;26.80;;
69305;SDS011;56427;51.580;4.656;2023-02-14T16:55:50;49.78;;;26.65;;